Airfield :
LOGIN :

Register | Disclaimer

   EN    FR    IT 

 










Legend :    VFR   Marginal VFR   IFR   Intensive IFR   Very Intensive IFR
Visi :
Ceiling :
>= 8 km
>= 3000ft
5 to 8 km
1000 to 3000 ft
1500m to 5 km
500 to 1000 ft
800 to 1500m
200 to 500 ft
< 800m
< 200 ft
Symbols :   Thunderstorms  Fog  Heavy snow  Heavy precipitations  Wind > 20 kt
SIGMETs :     Misc.  Thunderstorms  Icing  Turbulence  Mountain Waves  Volcanic Ashes






- Airport Elevation : 681 ft
- IATA code : LBA


EGNM - Leeds Bradford

CURRENT METAR :
  • 302050Z 24005KT 9999 FEW005 SCT028 12/11 Q0997

EXPIRED METARs :
  • 302020Z 21005KT 9999 SCT016 SCT036 12/11 Q0997
  • 301950Z 19005KT 9999 SCT008 SCT040 11/11 Q0997
  • 301920Z 16005KT 9000 -RADZ SCT002 BKN004 12/11 Q0997
  • 301850Z 15008KT 2000 -RADZ BR SCT003 BKN005 12/12 Q0998
  • 301820Z 14008KT 1800 -RADZ BR SCT001 BKN002 12/12 Q0998

TAF TAF EGNM
Valid from the 30 at 18:00 until the 01 at 18:00 UTC


301701Z 3018/0118 15008KT 9999 SCT020
TEMPO 3018/3021 6000 RA BKN010
PROB30
TEMPO 3018/3020 1200 +RA BKN004
PROB30
TEMPO 3021/0104 6000 RA SHRA BKN012
BECMG 0100/0103 26010KT
PROB30
TEMPO 0110/0115 7000 SHRA BKN014
BECMG 0112/0115 20003KT
ATIS : +44 113 250 9696 (x2489)



MET'MAP, your aeronautical weather chart ! - Copyright ORBIFLY December 2007 - Disclaimer

ORBIFLY MET'MAP TEAM :

Programming & Development : Alexandra Zaïnal
Concept & original design : Baudouin d'Aumeries
Assistance for programming : Marc-Olivier Méhu
Technical & hardware support : Manuel Goepfert

Contact : metmap@orbifly.com




SOURCES & CREDITS :

   NOAA